sensor_id;sensor_type;location;lat;lon;timestamp;P1;durP1;ratioP1;P2;durP2;ratioP2
43554;SDS011;35085;40.398;-3.702;2022-11-20T00:00:48;2.58;;;0.50;;
43554;SDS011;35085;40.398;-3.702;2022-11-20T00:11:21;1.48;;;0.40;;
43554;SDS011;35085;40.398;-3.702;2022-11-20T00:21:30;0.90;;;0.30;;
43554;SDS011;35085;40.398;-3.702;2022-11-20T00:31:59;3.15;;;0.50;;
43554;SDS011;35085;40.398;-3.702;2022-11-20T00:42:08;1.08;;;0.40;;
43554;SDS011;35085;40.398;-3.702;2022-11-20T00:52:36;1.55;;;0.30;;
43554;SDS011;35085;40.398;-3.702;2022-11-20T01:02:45;1.20;;;0.40;;
43554;SDS011;35085;40.398;-3.702;2022-11-20T01:13:15;2.55;;;0.50;;
43554;SDS011;35085;40.398;-3.702;2022-11-20T01:23:44;1.65;;;0.50;;
43554;SDS011;35085;40.398;-3.702;2022-11-20T01:34:18;0.77;;;0.22;;
43554;SDS011;35085;40.398;-3.702;2022-11-20T01:44:48;1.10;;;0.30;;
43554;SDS011;35085;40.398;-3.702;2022-11-20T01:55:17;1.38;;;0.28;;
43554;SDS011;35085;40.398;-3.702;2022-11-20T02:16:19;3.72;;;1.17;;
43554;SDS011;35085;40.398;-3.702;2022-11-20T02:26:32;0.93;;;0.40;;
43554;SDS011;35085;40.398;-3.702;2022-11-20T02:37:15;0.80;;;0.20;;
43554;SDS011;35085;40.398;-3.702;2022-11-20T02:47:35;0.77;;;0.30;;
43554;SDS011;35085;40.398;-3.702;2022-11-20T02:58:05;1.73;;;0.50;;
43554;SDS011;35085;40.398;-3.702;2022-11-20T03:08:16;2.05;;;0.45;;
43554;SDS011;35085;40.398;-3.702;2022-11-20T03:18:48;2.75;;;0.52;;
43554;SDS011;35085;40.398;-3.702;2022-11-20T03:29:03;1.17;;;0.50;;
43554;SDS011;35085;40.398;-3.702;2022-11-20T03:39:39;2.15;;;0.88;;
43554;SDS011;35085;40.398;-3.702;2022-11-20T03:49:52;2.30;;;0.90;;
43554;SDS011;35085;40.398;-3.702;2022-11-20T04:00:21;4.00;;;1.85;;
43554;SDS011;35085;40.398;-3.702;2022-11-20T04:10:32;1.92;;;1.25;;
43554;SDS011;35085;40.398;-3.702;2022-11-20T04:21:04;3.10;;;1.70;;
43554;SDS011;35085;40.398;-3.702;2022-11-20T04:31:18;2.50;;;0.90;;
43554;SDS011;35085;40.398;-3.702;2022-11-20T04:41:48;3.72;;;1.05;;
43554;SDS011;35085;40.398;-3.702;2022-11-20T05:03:02;3.60;;;1.00;;
43554;SDS011;35085;40.398;-3.702;2022-11-20T05:13:11;3.67;;;1.20;;
43554;SDS011;35085;40.398;-3.702;2022-11-20T05:23:42;3.33;;;1.10;;
43554;SDS011;35085;40.398;-3.702;2022-11-20T05:33:51;2.13;;;1.00;;
43554;SDS011;35085;40.398;-3.702;2022-11-20T05:44:20;3.88;;;1.20;;
43554;SDS011;35085;40.398;-3.702;2022-11-20T05:54:30;1.98;;;0.80;;
43554;SDS011;35085;40.398;-3.702;2022-11-20T06:04:59;3.65;;;1.00;;
43554;SDS011;35085;40.398;-3.702;2022-11-20T06:15:09;3.33;;;1.02;;
43554;SDS011;35085;40.398;-3.702;2022-11-20T06:25:38;4.28;;;1.13;;
43554;SDS011;35085;40.398;-3.702;2022-11-20T06:35:47;2.13;;;0.90;;
43554;SDS011;35085;40.398;-3.702;2022-11-20T06:46:16;4.47;;;1.30;;
43554;SDS011;35085;40.398;-3.702;2022-11-20T06:56:25;2.47;;;1.15;;
43554;SDS011;35085;40.398;-3.702;2022-11-20T07:06:55;3.38;;;1.30;;
43554;SDS011;35085;40.398;-3.702;2022-11-20T07:17:04;4.50;;;1.10;;
43554;SDS011;35085;40.398;-3.702;2022-11-20T07:27:34;6.00;;;1.52;;
43554;SDS011;35085;40.398;-3.702;2022-11-20T07:37:43;5.78;;;1.55;;
43554;SDS011;35085;40.398;-3.702;2022-11-20T07:48:15;6.82;;;2.88;;
43554;SDS011;35085;40.398;-3.702;2022-11-20T07:58:23;3.92;;;1.90;;
43554;SDS011;35085;40.398;-3.702;2022-11-20T08:08:54;7.75;;;1.90;;
43554;SDS011;35085;40.398;-3.702;2022-11-20T08:19:03;2.80;;;1.75;;
43554;SDS011;35085;40.398;-3.702;2022-11-20T08:29:32;7.78;;;4.22;;
43554;SDS011;35085;40.398;-3.702;2022-11-20T08:39:41;3.88;;;2.25;;
43554;SDS011;35085;40.398;-3.702;2022-11-20T08:50:10;5.38;;;1.75;;
43554;SDS011;35085;40.398;-3.702;2022-11-20T09:00:19;10.48;;;6.15;;
43554;SDS011;35085;40.398;-3.702;2022-11-20T09:10:51;2.50;;;1.33;;
43554;SDS011;35085;40.398;-3.702;2022-11-20T09:21:00;4.63;;;2.65;;
43554;SDS011;35085;40.398;-3.702;2022-11-20T09:31:28;3.17;;;1.52;;
43554;SDS011;35085;40.398;-3.702;2022-11-20T09:41:54;4.70;;;1.83;;
43554;SDS011;35085;40.398;-3.702;2022-11-20T09:53:12;1.88;;;1.25;;
43554;SDS011;35085;40.398;-3.702;2022-11-20T10:03:10;5.22;;;1.50;;
43554;SDS011;35085;40.398;-3.702;2022-11-20T10:45:27;4.72;;;1.88;;
43554;SDS011;35085;40.398;-3.702;2022-11-20T10:55:55;2.63;;;1.45;;
43554;SDS011;35085;40.398;-3.702;2022-11-20T11:06:48;3.77;;;1.70;;
43554;SDS011;35085;40.398;-3.702;2022-11-20T11:16:31;1.98;;;1.15;;
43554;SDS011;35085;40.398;-3.702;2022-11-20T11:26:41;3.90;;;1.10;;
43554;SDS011;35085;40.398;-3.702;2022-11-20T11:36:57;1.17;;;0.55;;
43554;SDS011;35085;40.398;-3.702;2022-11-20T11:47:11;2.65;;;1.10;;
43554;SDS011;35085;40.398;-3.702;2022-11-20T12:07:41;2.53;;;0.60;;
43554;SDS011;35085;40.398;-3.702;2022-11-20T12:17:48;3.53;;;2.15;;
43554;SDS011;35085;40.398;-3.702;2022-11-20T13:08:54;1.52;;;0.60;;
43554;SDS011;35085;40.398;-3.702;2022-11-20T13:19:01;5.10;;;1.58;;
43554;SDS011;35085;40.398;-3.702;2022-11-20T13:29:09;1.92;;;0.75;;
43554;SDS011;35085;40.398;-3.702;2022-11-20T13:39:23;2.70;;;0.97;;
43554;SDS011;35085;40.398;-3.702;2022-11-20T13:49:42;1.90;;;0.85;;
43554;SDS011;35085;40.398;-3.702;2022-11-20T14:09:56;8.50;;;4.30;;
43554;SDS011;35085;40.398;-3.702;2022-11-20T14:20:06;3.13;;;1.15;;
43554;SDS011;35085;40.398;-3.702;2022-11-20T14:50:34;6.40;;;2.97;;
43554;SDS011;35085;40.398;-3.702;2022-11-20T15:00:53;5.43;;;2.30;;
43554;SDS011;35085;40.398;-3.702;2022-11-20T15:10:55;3.85;;;2.20;;
43554;SDS011;35085;40.398;-3.702;2022-11-20T15:21:09;2.73;;;0.93;;
43554;SDS011;35085;40.398;-3.702;2022-11-20T15:31:21;5.20;;;3.05;;
43554;SDS011;35085;40.398;-3.702;2022-11-20T15:41:27;3.70;;;1.73;;
43554;SDS011;35085;40.398;-3.702;2022-11-20T15:51:30;1.80;;;1.13;;
43554;SDS011;35085;40.398;-3.702;2022-11-20T16:01:36;3.45;;;1.73;;
43554;SDS011;35085;40.398;-3.702;2022-11-20T16:11:47;3.75;;;2.20;;
43554;SDS011;35085;40.398;-3.702;2022-11-20T16:21:59;4.63;;;2.63;;
43554;SDS011;35085;40.398;-3.702;2022-11-20T16:32:07;4.88;;;1.92;;
43554;SDS011;35085;40.398;-3.702;2022-11-20T16:42:14;5.80;;;2.70;;
43554;SDS011;35085;40.398;-3.702;2022-11-20T16:52:17;4.15;;;2.25;;
43554;SDS011;35085;40.398;-3.702;2022-11-20T17:02:26;5.73;;;2.60;;
43554;SDS011;35085;40.398;-3.702;2022-11-20T17:12:36;6.80;;;3.23;;
43554;SDS011;35085;40.398;-3.702;2022-11-20T17:22:45;4.93;;;2.17;;
43554;SDS011;35085;40.398;-3.702;2022-11-20T17:32:55;3.87;;;2.33;;
43554;SDS011;35085;40.398;-3.702;2022-11-20T17:43:04;6.25;;;3.45;;
43554;SDS011;35085;40.398;-3.702;2022-11-20T17:53:14;3.50;;;1.92;;
43554;SDS011;35085;40.398;-3.702;2022-11-20T18:03:23;4.07;;;1.95;;
43554;SDS011;35085;40.398;-3.702;2022-11-20T18:13:25;4.47;;;2.15;;
43554;SDS011;35085;40.398;-3.702;2022-11-20T18:23:48;6.20;;;3.42;;
43554;SDS011;35085;40.398;-3.702;2022-11-20T18:34:16;7.63;;;4.22;;
43554;SDS011;35085;40.398;-3.702;2022-11-20T18:44:28;7.30;;;3.67;;
43554;SDS011;35085;40.398;-3.702;2022-11-20T18:54:50;4.22;;;2.60;;
43554;SDS011;35085;40.398;-3.702;2022-11-20T19:04:58;7.75;;;3.20;;
43554;SDS011;35085;40.398;-3.702;2022-11-20T19:15:03;5.35;;;2.55;;
43554;SDS011;35085;40.398;-3.702;2022-11-20T19:25:09;11.93;;;4.47;;
43554;SDS011;35085;40.398;-3.702;2022-11-20T19:35:19;13.33;;;5.13;;
43554;SDS011;35085;40.398;-3.702;2022-11-20T19:45:27;7.80;;;3.72;;
43554;SDS011;35085;40.398;-3.702;2022-11-20T19:55:29;4.88;;;2.38;;
43554;SDS011;35085;40.398;-3.702;2022-11-20T20:05:39;6.43;;;3.30;;
43554;SDS011;35085;40.398;-3.702;2022-11-20T20:15:41;6.07;;;3.33;;
43554;SDS011;35085;40.398;-3.702;2022-11-20T20:25:51;6.00;;;3.63;;
43554;SDS011;35085;40.398;-3.702;2022-11-20T20:35:54;6.97;;;3.70;;
43554;SDS011;35085;40.398;-3.702;2022-11-20T20:56:15;6.37;;;3.27;;
43554;SDS011;35085;40.398;-3.702;2022-11-20T21:06:24;4.53;;;2.57;;
43554;SDS011;35085;40.398;-3.702;2022-11-20T21:16:27;4.03;;;2.30;;
43554;SDS011;35085;40.398;-3.702;2022-11-20T21:26:41;2.78;;;1.58;;
43554;SDS011;35085;40.398;-3.702;2022-11-20T21:36:43;6.45;;;1.77;;
43554;SDS011;35085;40.398;-3.702;2022-11-20T21:46:52;3.10;;;1.90;;
43554;SDS011;35085;40.398;-3.702;2022-11-20T21:57:00;3.50;;;1.70;;
43554;SDS011;35085;40.398;-3.702;2022-11-20T22:07:04;4.15;;;1.60;;
43554;SDS011;35085;40.398;-3.702;2022-11-20T22:27:21;2.58;;;1.02;;
43554;SDS011;35085;40.398;-3.702;2022-11-20T22:37:29;2.58;;;0.85;;
43554;SDS011;35085;40.398;-3.702;2022-11-20T22:47:40;1.20;;;0.60;;
43554;SDS011;35085;40.398;-3.702;2022-11-20T22:57:48;1.73;;;0.88;;
43554;SDS011;35085;40.398;-3.702;2022-11-20T23:07:58;2.10;;;0.80;;
43554;SDS011;35085;40.398;-3.702;2022-11-20T23:18:06;1.45;;;0.80;;
43554;SDS011;35085;40.398;-3.702;2022-11-20T23:28:38;1.45;;;0.90;;
43554;SDS011;35085;40.398;-3.702;2022-11-20T23:38:47;1.70;;;0.90;;
43554;SDS011;35085;40.398;-3.702;2022-11-20T23:49:18;1.42;;;0.93;;
43554;SDS011;35085;40.398;-3.702;2022-11-20T23:59:27;1.00;;;0.50;;
